createdAt,value
2023-04-15T00:02:26.295Z,11.39
2023-04-15T00:04:53.835Z,11.38
2023-04-15T00:07:21.350Z,11.41
2023-04-15T00:09:55.066Z,11.41
2023-04-15T00:12:45.666Z,11.43
2023-04-15T00:15:13.350Z,11.43
2023-04-15T00:17:40.641Z,11.44
2023-04-15T00:20:08.078Z,11.42
2023-04-15T00:22:35.636Z,11.42
2023-04-15T00:25:02.669Z,11.39
2023-04-15T00:27:30.023Z,11.40
2023-04-15T00:30:02.155Z,11.38
2023-04-15T00:32:29.703Z,11.37
2023-04-15T00:34:57.319Z,11.36
2023-04-15T00:40:42.063Z,11.40
2023-04-15T00:43:11.028Z,11.39
2023-04-15T00:45:38.560Z,11.38
2023-04-15T00:48:05.948Z,11.35
2023-04-15T00:50:33.496Z,11.34
2023-04-15T00:53:00.718Z,11.34
2023-04-15T00:55:28.442Z,11.32
2023-04-15T00:57:57.006Z,11.30
2023-04-15T03:00:24.864Z,10.50
2023-04-15T03:03:11.091Z,10.48
2023-04-15T08:02:38.969Z,10.38
2023-04-15T08:06:25.503Z,10.40
2023-04-15T11:53:39.852Z,10.39
2023-04-15T11:56:22.238Z,10.30
2023-04-15T11:58:56.241Z,10.28
2023-04-15T12:01:34.537Z,10.28
2023-04-15T12:04:04.346Z,10.26
2023-04-15T12:06:46.205Z,10.24
2023-04-15T12:09:15.081Z,10.17
2023-04-15T12:11:44.537Z,10.14
2023-04-15T12:14:30.544Z,10.09
2023-04-15T12:16:59.652Z,10.07
2023-04-15T12:19:28.982Z,10.07
2023-04-15T12:22:01.367Z,10.10
2023-04-15T12:24:31.353Z,10.08
2023-04-15T12:27:04.474Z,10.11
2023-04-15T12:29:33.721Z,10.12
2023-04-15T12:32:11.551Z,10.05
2023-04-15T12:34:40.504Z,10.06
2023-04-15T12:37:09.907Z,10.04
2023-04-15T12:39:44.760Z,10.05
2023-04-15T12:42:12.449Z,10.03
2023-04-15T12:44:40.049Z,10.05
2023-04-15T12:47:09.094Z,10.09
2023-04-15T12:49:37.079Z,10.12
2023-04-15T12:52:07.505Z,10.14
2023-04-15T12:54:35.415Z,10.16
2023-04-15T12:57:06.023Z,10.16
2023-04-15T12:59:35.054Z,10.14
2023-04-15T13:02:04.811Z,10.17
2023-04-15T13:04:32.619Z,10.23
2023-04-15T13:06:59.888Z,10.26
2023-04-15T17:01:14.158Z,10.62
2023-04-15T17:03:41.739Z,10.63
2023-04-15T17:06:09.033Z,10.63
2023-04-15T17:08:37.312Z,10.65
2023-04-15T17:11:07.309Z,10.65
2023-04-15T17:13:40.267Z,10.65
2023-04-15T17:16:14.299Z,10.65
2023-04-15T17:18:46.793Z,10.63
2023-04-15T17:21:31.526Z,10.62
2023-04-15T17:24:07.284Z,10.61
2023-04-15T17:26:35.677Z,10.58
2023-04-15T17:29:05.806Z,10.56
2023-04-15T17:31:35.906Z,10.55
2023-04-15T17:34:08.784Z,10.55
2023-04-15T17:36:36.293Z,10.55
2023-04-15T17:39:04.147Z,10.54
2023-04-15T17:41:31.615Z,10.53
2023-04-15T17:43:58.725Z,10.53
2023-04-15T17:46:26.397Z,10.53
2023-04-15T17:48:53.571Z,10.52
2023-04-15T17:51:21.209Z,10.49
2023-04-15T17:53:48.691Z,10.50
2023-04-15T17:56:16.367Z,10.50
2023-04-15T17:58:43.919Z,10.46
2023-04-15T18:01:11.375Z,10.41
2023-04-15T18:03:42.170Z,10.35
2023-04-15T18:06:12.103Z,10.35
2023-04-15T18:08:41.208Z,10.30
2023-04-15T18:11:10.982Z,10.24
2023-04-15T18:13:38.020Z,10.22
2023-04-15T18:16:09.048Z,10.21
2023-04-15T18:18:39.316Z,10.19
2023-04-15T18:21:06.637Z,10.18
2023-04-15T18:23:34.356Z,10.16
2023-04-15T18:26:01.970Z,10.15
2023-04-15T18:28:30.851Z,10.14
2023-04-15T18:31:08.762Z,10.13
2023-04-15T18:33:36.369Z,10.12
2023-04-15T18:36:04.446Z,10.09
2023-04-15T18:38:32.659Z,10.01
2023-04-15T18:41:00.554Z,9.97
2023-04-15T18:43:28.318Z,9.92
2023-04-15T21:08:47.481Z,9.41
2023-04-15T21:18:53.754Z,9.41
2023-04-15T21:25:29.996Z,9.40
2023-04-15T21:32:18.330Z,9.34
2023-04-15T21:35:40.626Z,9.35
2023-04-15T21:38:07.458Z,9.33
2023-04-15T21:40:39.637Z,9.33
2023-04-15T21:43:09.277Z,9.29
2023-04-15T21:45:37.985Z,9.28
2023-04-15T21:48:07.872Z,9.26
2023-04-15T21:50:36.394Z,9.24
2023-04-15T21:53:03.930Z,9.22
2023-04-15T21:55:31.163Z,9.18
2023-04-15T21:57:58.172Z,9.14
2023-04-15T22:00:25.102Z,9.14
2023-04-15T22:02:52.177Z,9.13
2023-04-15T22:05:19.267Z,9.13
2023-04-15T22:07:46.342Z,9.13
2023-04-15T22:10:13.425Z,9.12
2023-04-15T22:12:41.630Z,9.11
2023-04-15T22:15:11.050Z,9.09
2023-04-15T22:17:38.483Z,9.06
2023-04-15T22:20:06.300Z,9.02
2023-04-15T22:22:43.820Z,8.99
2023-04-15T22:25:11.830Z,8.96
2023-04-15T22:27:38.764Z,8.94
2023-04-15T22:30:06.022Z,8.93
2023-04-15T22:32:32.867Z,8.91
2023-04-15T22:35:01.172Z,8.89
2023-04-15T22:37:33.846Z,8.86
2023-04-15T22:40:03.942Z,8.84
2023-04-15T22:42:31.032Z,8.82
2023-04-15T22:44:59.485Z,8.83
2023-04-15T22:47:28.105Z,8.79
2023-04-15T22:49:55.205Z,8.79
2023-04-15T22:52:30.033Z,8.78
2023-04-15T22:54:58.582Z,8.80
2023-04-15T22:57:28.348Z,8.82
2023-04-15T22:59:58.004Z,8.82
2023-04-15T23:02:28.172Z,8.80
2023-04-15T23:04:58.575Z,8.78
2023-04-15T23:07:30.191Z,8.78
2023-04-15T23:10:02.743Z,8.75
2023-04-15T23:12:30.639Z,8.75
2023-04-15T23:14:57.664Z,8.74
2023-04-15T23:17:28.696Z,8.74
2023-04-15T23:19:56.775Z,8.74
2023-04-15T23:22:23.956Z,8.75
2023-04-15T23:24:53.657Z,8.75
2023-04-15T23:27:25.974Z,8.74
2023-04-15T23:30:04.731Z,8.73
2023-04-15T23:32:32.838Z,8.72
2023-04-15T23:35:00.041Z,8.71
2023-04-15T23:37:27.294Z,8.69
2023-04-15T23:39:55.069Z,8.68
2023-04-15T23:42:25.166Z,8.68
2023-04-15T23:45:00.140Z,8.65
2023-04-15T23:47:27.353Z,8.65
2023-04-15T23:49:59.641Z,8.67
2023-04-15T23:52:27.882Z,8.67
2023-04-15T23:54:59.072Z,8.66
2023-04-15T23:57:40.535Z,8.66
